Pagina principale
METAR-TAF:

METAR-TAF

Aeroporti :

Aeroporto di Gran Canaria

Gran Canaria, Spagna

latitudine: 27-56N, longitudine: 015-23W, altezza: 23 m

Osservazione

Il bollettino è stato emesso 17 minuti fa, alle 01:30 UTC
Vento 5 kt da ovest
Temperature 15°C
Umidità 63%
Pressione 1022 hPa
Visibilità 10 km o più
Poco nuvoloso ad un'altezza di 3500 ft

METAR: GCLP 250130Z 28005KT 9999 FEW035 15/08 Q1022 NOSIG

Ora: 01:47 (01:47 UTC)

Previsione

Il bollettino è stato emesso 5 ore e 47 minuti fa, alle 20:00 UTC
Previsione valida dal 24 alle 21 UTC al 25 alle 21 UTC
Vento 7 kt da ovest/nord-ovest
Visibilità 10 km o più
Poco nuvoloso ad un'altezza di 3500 ft
Evoluzione graduale
dal 25 alle 09 UTC al 25 alle 11 UTC
Vento 15 kt da nord

TAF: GCLP 242000Z 2421/2521 29007KT 9999 FEW035 TX20/2515Z TN14/2506Z BECMG 2509/2511 01015KT

Osservazioni e previsioni meteorologiche di più di 4000 aeroporti (messaggi METAR e TAF).

Le stazioni disponibili sono rappresentate dai dischi gialli e rossi sulla carta.

Puntare il mouse per vedere il nome della stazione.

Clicca sopra per visualizzare le osservazioni e previsioni meteorologiche.

Per cambiare la mappa : fare clic sui pulsanti verdi con una croce nera per ingrandire, il pulsante verde con un trattino per diminuire, o sulla freccia verde per le mappe adiacenti.


METAR-TAF: